Pagina principale
METAR-TAF:

METAR-TAF

Aeroporti :

Aeroporto di Brescia-Ghedi

Brescia Ghedi, Italia

latitudine: 45-25N, longitudine: 010-17E, altezza: 102 m

Osservazione

Il bollettino è stato emesso 7 ore e 1 minuti fa, alle 04:55 UTC
Vento 7 kt da est/nord-est
Temperature 22°C
Umidità 69%
Pressione 1016 hPa
Visibilità 10 km o più
nessuna nube inferiore a 1500 m e nessun cumulonembo

METAR: LIPL 210455Z 07007KT CAVOK 22/16 Q1016 RMK BKN SCT120 SCT200 VIS MIN 9999 WIND THR31 06007KT WIND THR13 03004KT BLU

Ora: 13:56 (11:56 UTC)

Previsione

Il bollettino è stato emesso 6 ore e 56 minuti fa, alle 05:00 UTC
Previsione valida dal 21 alle 06 UTC al 21 alle 15 UTC
Vento 5 kt da direzioni variabili
Visibilità 10 km o più
Poco nuvoloso ad un'altezza di 3500 ft

TAF: LIPL 210500Z 2106/2115 VRB05KT 9999 FEW035

Osservazioni e previsioni meteorologiche di più di 4000 aeroporti (messaggi METAR e TAF).

Le stazioni disponibili sono rappresentate dai dischi gialli e rossi sulla carta.

Puntare il mouse per vedere il nome della stazione.

Clicca sopra per visualizzare le osservazioni e previsioni meteorologiche.

Per cambiare la mappa : fare clic sui pulsanti verdi con una croce nera per ingrandire, il pulsante verde con un trattino per diminuire, o sulla freccia verde per le mappe adiacenti.


METAR-TAF: